Time;durP1;ratioP1;P1;durP2;ratioP2;P2;SDS_P1;SDS_P2;PMS_P1;PMS_P2;Temp;Humidity;BMP_temperature;BMP_pressure;BME280_temperature;BME280_humidity;BME280_pressure;Samples;Min_cycle;Max_cycle;Signal;HPM_P1;HPM_P2
2022/05/26 00:01:40;;;;;;;4.15;0.95;;;19.50;64.60;;;;;;4971921;28;20031;-72
2022/05/26 00:04:05;;;;;;;3.33;1.15;;;19.50;64.60;;;;;;4956037;28;20066;-72
2022/05/26 00:06:31;;;;;;;5.05;1.20;;;19.50;64.70;;;;;;4973359;28;20031;-72
2022/05/26 00:08:57;;;;;;;8.20;1.60;;;19.50;64.70;;;;;;4972054;28;20082;-72
2022/05/26 00:11:28;;;;;;;3.83;1.40;;;19.50;64.70;;;;;;4971837;28;20054;-72
2022/05/26 00:13:54;;;;;;;4.28;1.45;;;19.50;64.70;;;;;;4956552;28;20050;-72
2022/05/26 00:16:20;;;;;;;3.70;1.25;;;19.60;64.80;;;;;;4971749;28;20520;-72
2022/05/26 00:18:45;;;;;;;5.32;1.20;;;19.50;64.80;;;;;;4956064;28;20049;-72
2022/05/26 00:21:11;;;;;;;3.58;0.90;;;19.50;64.80;;;;;;4971704;28;20027;-72
2022/05/26 00:23:37;;;;;;;5.43;1.05;;;19.50;64.90;;;;;;4955929;28;20417;-72
2022/05/26 00:26:02;;;;;;;5.22;1.58;;;19.50;64.90;;;;;;4971915;28;20404;-72
2022/05/26 00:28:30;;;;;;;4.30;0.95;;;19.50;64.90;;;;;;4955825;28;20069;-72
2022/05/26 00:30:55;;;;;;;3.20;1.10;;;19.50;64.90;;;;;;4972961;28;20416;-72
2022/05/26 00:33:21;;;;;;;3.95;1.00;;;19.50;64.90;;;;;;4971895;28;20030;-72
2022/05/26 00:35:47;;;;;;;3.72;1.10;;;19.50;64.90;;;;;;4955707;28;20371;-72
2022/05/26 00:38:13;;;;;;;4.68;1.00;;;19.50;64.90;;;;;;4955637;28;20030;-72
2022/05/26 00:40:39;;;;;;;4.05;1.15;;;19.50;64.90;;;;;;4973083;28;20023;-72
2022/05/26 00:43:06;;;;;;;6.35;1.10;;;19.50;64.90;;;;;;4955802;28;20397;-72
2022/05/26 00:45:37;;;;;;;3.15;1.42;;;19.50;65.00;;;;;;4955324;28;20054;-72
2022/05/26 00:48:09;;;;;;;2.77;1.17;;;19.50;65.00;;;;;;4956597;28;20053;-72
2022/05/26 00:50:44;;;;;;;3.90;1.10;;;19.50;65.00;;;;;;4959870;28;20278;-72
2022/05/26 00:53:21;;;;;;;8.80;1.52;;;19.50;65.00;;;;;;4975126;28;20462;-72
2022/05/26 00:55:58;;;;;;;6.93;1.20;;;19.50;65.10;;;;;;4959613;28;20102;-72
2022/05/26 00:58:28;;;;;;;3.85;0.90;;;19.50;65.10;;;;;;4976010;28;20029;-72
2022/05/26 01:00:54;;;;;;;4.72;1.00;;;19.50;65.00;;;;;;4959522;28;20050;-72
2022/05/26 01:03:27;;;;;;;2.97;0.88;;;19.40;65.00;;;;;;4958879;28;20397;-72
2022/05/26 01:05:54;;;;;;;4.00;1.10;;;19.50;65.10;;;;;;4959543;28;20031;-73
2022/05/26 01:08:42;;;;;;;2.80;0.80;;;19.40;65.10;;;;;;4974869;28;20543;-72
2022/05/26 01:11:07;;;;;;;3.17;1.35;;;19.40;65.10;;;;;;4967937;28;20031;-73
2022/05/26 01:13:33;;;;;;;2.85;1.05;;;19.40;65.10;;;;;;4974671;28;20034;-73
2022/05/26 01:16:21;;;;;;;2.10;0.93;;;19.50;65.20;;;;;;4959191;28;20023;-72
2022/05/26 01:19:00;;;;;;;3.00;0.93;;;19.50;65.30;;;;;;4959531;28;20019;-72
2022/05/26 01:21:58;;;;;;;3.60;1.30;;;19.40;65.20;;;;;;4974455;28;20022;-72
2022/05/26 01:24:38;;;;;;;3.17;1.13;;;19.40;65.30;;;;;;4973468;28;20042;-72
2022/05/26 01:27:09;;;;;;;4.80;1.25;;;19.40;65.30;;;;;;4973768;28;20047;-72
2022/05/26 01:29:57;;;;;;;2.92;1.15;;;19.40;65.30;;;;;;4973456;28;20162;-72
2022/05/26 01:32:56;;;;;;;2.50;0.85;;;19.40;65.30;;;;;;4973569;28;20030;-72
2022/05/26 01:35:40;;;;;;;2.00;1.20;;;19.40;65.40;;;;;;4973561;28;20413;-72
2022/05/26 01:38:21;;;;;;;2.22;1.00;;;19.40;65.50;;;;;;4957961;28;20035;-72
2022/05/26 01:41:11;;;;;;;2.78;1.10;;;19.40;65.40;;;;;;4973467;28;20051;-72
2022/05/26 01:43:55;;;;;;;5.30;1.38;;;19.40;65.40;;;;;;4957150;28;20027;-72
2022/05/26 01:46:38;;;;;;;4.82;1.10;;;19.40;65.50;;;;;;4957058;28;20405;-72
2022/05/26 01:49:25;;;;;;;3.42;0.85;;;19.40;65.50;;;;;;4957161;28;20057;-72
2022/05/26 01:51:53;;;;;;;5.43;1.45;;;19.40;65.50;;;;;;4957270;28;20057;-72
2022/05/26 01:54:38;;;;;;;1.52;1.05;;;19.40;65.60;;;;;;4973108;28;20043;-72
2022/05/26 01:57:10;;;;;;;3.47;1.70;;;19.30;65.50;;;;;;4958653;28;20031;-72
2022/05/26 01:59:38;;;;;;;5.03;1.00;;;19.40;65.50;;;;;;4960402;28;20037;-72
2022/05/26 02:02:11;;;;;;;3.83;1.10;;;19.30;65.50;;;;;;4958182;28;20023;-72
2022/05/26 02:04:49;;;;;;;4.05;0.95;;;19.40;65.60;;;;;;4958227;28;20552;-72
2022/05/26 02:07:16;;;;;;;3.05;0.95;;;19.40;65.70;;;;;;4973891;28;20023;-73
2022/05/26 02:09:41;;;;;;;2.90;1.33;;;19.40;65.70;;;;;;4973936;28;20026;-72
2022/05/26 02:12:29;;;;;;;2.92;1.17;;;19.40;65.70;;;;;;4957729;28;20050;-72
2022/05/26 02:15:17;;;;;;;2.70;0.98;;;19.40;65.80;;;;;;4975056;28;20030;-72
2022/05/26 02:17:48;;;;;;;3.97;1.52;;;19.40;65.70;;;;;;4973654;28;20050;-72
2022/05/26 02:20:26;;;;;;;3.58;1.10;;;19.30;65.60;;;;;;4974597;28;20023;-72
2022/05/26 02:23:04;;;;;;;6.90;1.02;;;19.30;65.80;;;;;;4967588;28;20137;-72
2022/05/26 02:25:30;;;;;;;5.45;0.98;;;19.40;65.80;;;;;;4970737;28;20497;-72
2022/05/26 02:27:57;;;;;;;16.13;1.40;;;19.40;65.70;;;;;;4971196;28;20023;-71
2022/05/26 02:30:28;;;;;;;7.10;1.00;;;19.30;65.70;;;;;;4971141;28;20521;-72
2022/05/26 02:32:54;;;;;;;2.45;1.00;;;19.40;65.70;;;;;;4971319;28;20409;-72
2022/05/26 02:35:26;;;;;;;4.07;1.20;;;19.40;65.70;;;;;;4970893;28;20019;-72
2022/05/26 02:38:00;;;;;;;5.85;1.30;;;19.30;65.20;;;;;;4969939;28;20027;-72
2022/05/26 02:40:27;;;;;;;3.28;1.05;;;19.30;65.20;;;;;;4971870;28;20078;-72
2022/05/26 02:43:00;;;;;;;7.53;1.30;;;19.30;65.20;;;;;;4973344;28;20055;-72
2022/05/26 02:45:41;;;;;;;7.85;1.50;;;19.30;65.20;;;;;;4972990;28;20083;-72
2022/05/26 02:48:12;;;;;;;2.20;0.98;;;19.30;65.20;;;;;;4973270;28;20027;-72
2022/05/26 02:50:56;;;;;;;2.97;0.90;;;19.30;65.10;;;;;;4974312;28;20069;-72
2022/05/26 02:53:30;;;;;;;6.70;1.35;;;19.30;65.10;;;;;;4973117;28;20034;-72
2022/05/26 02:56:01;;;;;;;7.05;1.02;;;19.30;65.20;;;;;;4974128;28;20019;-72
2022/05/26 02:59:05;;;;;;;1.75;0.90;;;19.30;65.20;;;;;;4974152;28;20030;-72
2022/05/26 03:01:41;;;;;;;4.70;1.00;;;19.30;65.30;;;;;;4972772;28;20448;-72
2022/05/26 03:04:19;;;;;;;3.97;0.77;;;19.30;65.20;;;;;;4972862;28;20031;-72
2022/05/26 03:06:50;;;;;;;2.30;1.02;;;19.30;65.20;;;;;;4972971;28;20046;-72
2022/05/26 03:09:16;;;;;;;7.45;1.40;;;19.30;65.20;;;;;;4972643;28;20097;-72
2022/05/26 03:11:47;;;;;;;1.95;1.25;;;19.30;65.30;;;;;;4972086;28;20386;-72
2022/05/26 03:14:14;;;;;;;3.58;0.60;;;19.30;65.30;;;;;;4972801;28;20068;-72
2022/05/26 03:16:41;;;;;;;6.90;1.20;;;19.30;65.30;;;;;;4972789;28;20093;-72
2022/05/26 03:19:08;;;;;;;2.38;0.85;;;19.30;65.40;;;;;;4973821;28;20035;-72
2022/05/26 03:21:35;;;;;;;4.00;1.05;;;19.20;65.40;;;;;;4972191;28;20018;-72
2022/05/26 03:24:01;;;;;;;2.88;1.00;;;19.30;65.50;;;;;;4972520;28;20058;-72
2022/05/26 03:26:26;;;;;;;3.08;0.80;;;19.30;65.50;;;;;;4972509;28;20535;-72
2022/05/26 03:28:52;;;;;;;2.28;1.05;;;19.30;65.50;;;;;;4973683;28;20502;-72
2022/05/26 03:31:17;;;;;;;2.13;0.70;;;19.20;65.40;;;;;;4972429;28;20030;-72
2022/05/26 03:41:56;;;;;;;4.53;1.02;;;19.20;65.50;;;;;;4972837;28;20078;-72
2022/05/26 03:44:21;;;;;;;4.22;0.70;;;19.20;66.50;;;;;;4971196;28;20413;-72
2022/05/26 03:46:48;;;;;;;5.03;0.90;;;19.20;65.50;;;;;;4955327;28;20054;-72
2022/05/26 03:49:14;;;;;;;1.38;0.77;;;19.20;65.60;;;;;;4955739;28;20051;-72
2022/05/26 03:51:39;;;;;;;2.03;1.10;;;19.20;65.70;;;;;;4973310;28;20460;-73
2022/05/26 03:54:05;;;;;;;2.00;0.88;;;19.20;65.60;;;;;;4955968;28;20497;-73
2022/05/26 03:56:31;;;;;;;4.53;1.00;;;19.20;65.60;;;;;;4973312;28;20073;-72
2022/05/26 03:58:56;;;;;;;6.10;1.48;;;19.20;65.70;;;;;;4972237;28;20026;-72
2022/05/26 04:01:27;;;;;;;1.15;0.75;;;19.20;65.70;;;;;;4972062;28;20404;-72
2022/05/26 04:03:55;;;;;;;2.70;1.50;;;19.20;65.70;;;;;;4971158;28;20015;-72
2022/05/26 04:06:21;;;;;;;3.65;0.90;;;19.20;65.70;;;;;;4971144;28;20022;-73
2022/05/26 04:08:46;;;;;;;4.05;0.80;;;19.20;65.80;;;;;;4970813;28;20409;-72
2022/05/26 04:11:12;;;;;;;5.80;1.25;;;19.20;65.80;;;;;;4972339;28;20038;-72
2022/05/26 04:13:38;;;;;;;2.20;0.90;;;19.20;65.80;;;;;;4971989;28;20022;-72
2022/05/26 04:16:04;;;;;;;5.55;1.00;;;19.20;65.90;;;;;;4971120;28;20473;-72
2022/05/26 04:18:29;;;;;;;4.93;1.00;;;19.20;65.80;;;;;;4972520;28;20492;-72
2022/05/26 04:21:09;;;;;;;3.78;1.02;;;19.20;65.90;;;;;;4970932;28;20034;-72
2022/05/26 04:23:35;;;;;;;6.40;0.93;;;19.20;66.00;;;;;;4973680;28;20022;-72
2022/05/26 04:26:02;;;;;;;3.80;0.90;;;19.20;65.90;;;;;;4975620;28;20027;-72
2022/05/26 04:28:27;;;;;;;3.88;0.90;;;19.20;66.00;;;;;;4974488;28;20030;-72
2022/05/26 04:30:53;;;;;;;2.03;0.80;;;19.20;66.00;;;;;;4974446;28;20023;-72
2022/05/26 04:33:19;;;;;;;2.70;1.23;;;19.20;66.00;;;;;;4975760;28;20053;-72
2022/05/26 04:35:44;;;;;;;2.00;0.70;;;19.20;66.10;;;;;;4958168;28;20018;-72
2022/05/26 04:38:11;;;;;;;4.90;1.15;;;19.20;66.10;;;;;;4975394;28;20497;-72
2022/05/26 04:40:36;;;;;;;3.35;1.10;;;19.20;66.10;;;;;;4974391;28;20078;-72
2022/05/26 04:43:02;;;;;;;6.30;0.90;;;19.20;66.10;;;;;;4975498;28;20027;-72
2022/05/26 04:45:28;;;;;;;4.55;0.90;;;19.20;66.10;;;;;;4975252;28;20050;-72
2022/05/26 04:47:53;;;;;;;4.13;1.10;;;19.20;66.10;;;;;;4975571;28;20029;-72
2022/05/26 04:50:21;;;;;;;3.38;0.93;;;19.20;66.20;;;;;;4959117;28;20109;-72
2022/05/26 04:52:47;;;;;;;4.35;1.17;;;19.20;66.10;;;;;;4974478;28;20485;-72
2022/05/26 04:55:12;;;;;;;3.17;1.00;;;19.20;66.10;;;;;;4975252;28;20035;-72
2022/05/26 04:57:38;;;;;;;4.00;0.93;;;19.20;66.20;;;;;;4958941;28;20085;-72
2022/05/26 05:00:06;;;;;;;3.67;0.93;;;19.20;66.10;;;;;;4975129;28;20038;-72
2022/05/26 05:02:32;;;;;;;6.13;1.02;;;19.20;66.20;;;;;;4975031;28;20030;-72
2022/05/26 05:04:58;;;;;;;4.85;1.20;;;19.20;66.20;;;;;;4976413;28;20549;-72
2022/05/26 05:07:23;;;;;;;2.58;0.98;;;19.10;66.10;;;;;;4976260;28;20106;-72
2022/05/26 05:09:49;;;;;;;4.40;0.90;;;19.10;66.10;;;;;;4974835;28;20030;-72
2022/05/26 05:12:17;;;;;;;3.22;0.60;;;19.20;66.20;;;;;;4975035;28;20033;-72
2022/05/26 05:14:47;;;;;;;6.55;1.02;;;19.20;66.20;;;;;;4958889;28;20482;-72
2022/05/26 05:17:13;;;;;;;2.40;0.77;;;19.20;66.20;;;;;;4958874;28;20015;-72
2022/05/26 05:19:39;;;;;;;2.20;0.80;;;19.10;66.20;;;;;;4974381;28;20437;-72
2022/05/26 05:22:17;;;;;;;2.67;0.90;;;19.10;66.20;;;;;;4974705;28;20034;-73
2022/05/26 05:25:02;;;;;;;2.95;0.98;;;19.10;66.20;;;;;;4960234;28;20026;-72
2022/05/26 05:27:35;;;;;;;3.42;1.23;;;19.10;66.20;;;;;;4975839;28;20397;-72
2022/05/26 05:30:03;;;;;;;2.50;0.95;;;19.10;66.30;;;;;;4959016;28;20027;-72
2022/05/26 05:32:32;;;;;;;2.35;0.88;;;19.10;66.30;;;;;;4958617;28;20029;-72
2022/05/26 05:35:05;;;;;;;3.85;1.05;;;19.10;66.30;;;;;;4957903;28;20029;-72
2022/05/26 05:37:31;;;;;;;3.53;1.33;;;19.10;66.30;;;;;;4974618;28;20019;-72
2022/05/26 05:39:57;;;;;;;1.00;0.70;;;19.10;66.30;;;;;;4958463;28;20049;-71
2022/05/26 05:42:23;;;;;;;2.50;1.00;;;19.10;66.40;;;;;;4975566;28;20126;-72
2022/05/26 05:44:48;;;;;;;4.85;1.10;;;19.10;66.40;;;;;;4974201;28;20054;-72
2022/05/26 05:47:14;;;;;;;1.40;0.73;;;19.10;66.50;;;;;;4974452;28;20037;-72
2022/05/26 05:49:40;;;;;;;3.88;0.75;;;19.10;66.50;;;;;;4973937;28;20034;-72
2022/05/26 05:52:11;;;;;;;2.67;1.05;;;19.10;66.50;;;;;;4974390;28;20019;-73
2022/05/26 05:54:37;;;;;;;5.35;1.25;;;19.10;66.50;;;;;;4974232;28;20023;-73
2022/05/26 05:57:03;;;;;;;5.03;1.20;;;19.10;66.50;;;;;;4974182;28;20019;-72
2022/05/26 05:59:28;;;;;;;1.10;0.60;;;19.10;66.60;;;;;;4957912;28;20169;-72
2022/05/26 06:01:54;;;;;;;3.83;0.68;;;19.10;66.60;;;;;;4975254;28;20042;-72
2022/05/26 06:04:20;;;;;;;3.15;0.98;;;19.10;66.60;;;;;;4975111;28;20085;-72
2022/05/26 06:06:45;;;;;;;2.47;0.82;;;19.10;66.60;;;;;;4973932;28;20023;-73
2022/05/26 06:09:16;;;;;;;1.98;0.85;;;19.10;66.70;;;;;;4958057;28;20362;-72
2022/05/26 06:11:42;;;;;;;2.92;1.08;;;19.10;66.70;;;;;;4973824;28;20041;-72
2022/05/26 06:14:08;;;;;;;3.88;1.35;;;19.10;67.70;;;;;;4975085;28;20042;-72
2022/05/26 06:16:34;;;;;;;2.78;1.02;;;19.10;66.70;;;;;;4957909;28;20019;-72
2022/05/26 06:19:00;;;;;;;5.05;1.10;;;19.10;66.70;;;;;;4973530;28;20022;-72
2022/05/26 06:21:25;;;;;;;5.32;0.90;;;19.10;66.80;;;;;;4957349;28;20019;-72
2022/05/26 06:23:51;;;;;;;3.20;0.98;;;19.00;66.80;;;;;;4973629;28;20085;-72
2022/05/26 06:26:17;;;;;;;2.25;0.73;;;19.10;66.90;;;;;;4973561;28;20023;-72
2022/05/26 06:31:27;;;;;;;1.88;1.02;;;19.10;66.90;;;;;;4974775;28;20150;-72
2022/05/26 06:39:21;;;;;;;3.85;0.93;;;19.10;67.00;;;;;;4960109;28;20165;-72
2022/05/26 06:44:30;;;;;;;3.72;0.98;;;19.10;67.00;;;;;;4974263;28;20414;-72
2022/05/26 06:46:56;;;;;;;2.67;0.70;;;19.10;67.00;;;;;;4972038;28;20031;-72
2022/05/26 06:49:21;;;;;;;1.23;0.52;;;19.10;67.20;;;;;;4972417;28;20502;-72
2022/05/26 06:51:47;;;;;;;4.40;0.93;;;19.10;67.30;;;;;;4971955;28;20468;-72
2022/05/26 06:54:13;;;;;;;3.83;0.82;;;19.10;67.40;;;;;;4972028;28;20035;-72
2022/05/26 06:56:38;;;;;;;5.03;1.13;;;19.10;67.50;;;;;;4972091;28;20019;-72
2022/05/26 06:59:04;;;;;;;2.72;0.98;;;19.10;67.60;;;;;;4969913;28;20050;-72
2022/05/26 07:01:30;;;;;;;7.30;1.35;;;19.10;67.60;;;;;;4973053;28;20019;-73
2022/05/26 07:03:55;;;;;;;2.97;0.80;;;19.10;67.60;;;;;;4956150;28;20059;-71
2022/05/26 07:06:23;;;;;;;1.95;0.80;;;19.10;67.60;;;;;;4973090;28;20034;-71
2022/05/26 07:08:49;;;;;;;1.40;0.73;;;19.10;67.70;;;;;;4955894;28;20034;-71
2022/05/26 07:11:15;;;;;;;2.08;0.68;;;19.10;67.70;;;;;;4955929;28;20019;-72
2022/05/26 07:13:40;;;;;;;3.60;0.88;;;19.10;67.70;;;;;;4971906;28;20027;-71
2022/05/26 07:16:07;;;;;;;5.93;0.80;;;19.10;67.60;;;;;;4971455;28;20390;-72
2022/05/26 07:18:33;;;;;;;2.88;0.80;;;19.10;67.70;;;;;;4955781;28;20117;-72
2022/05/26 07:20:58;;;;;;;3.65;0.88;;;19.10;67.80;;;;;;4955165;28;20605;-72
2022/05/26 07:23:24;;;;;;;3.03;0.70;;;19.10;67.80;;;;;;4971771;28;20444;-72
2022/05/26 07:25:49;;;;;;;5.00;0.95;;;19.10;67.80;;;;;;4972382;28;20490;-72
2022/05/26 07:28:15;;;;;;;3.30;0.80;;;19.10;67.80;;;;;;4973718;28;20031;-72
2022/05/26 07:30:41;;;;;;;7.50;0.82;;;19.10;67.80;;;;;;4972392;28;20039;-72
2022/05/26 07:33:07;;;;;;;6.18;0.90;;;19.10;67.70;;;;;;4973474;28;20031;-72
2022/05/26 07:35:33;;;;;;;4.35;1.23;;;19.10;67.70;;;;;;4972611;28;20026;-72
2022/05/26 07:43:30;;;;;;;6.20;0.88;;;19.10;67.90;;;;;;4972612;28;20042;-72
2022/05/26 07:45:56;;;;;;;5.28;0.73;;;19.10;67.90;;;;;;4971962;28;20129;-71
2022/05/26 07:48:22;;;;;;;3.90;0.63;;;19.10;67.90;;;;;;4972520;28;20166;-72
2022/05/26 07:50:47;;;;;;;3.40;0.80;;;19.10;67.90;;;;;;4972223;28;20161;-71
2022/05/26 07:53:13;;;;;;;2.40;0.70;;;19.10;67.90;;;;;;4973494;28;20100;-71
2022/05/26 07:55:42;;;;;;;2.78;0.80;;;19.10;67.90;;;;;;4973584;28;20549;-71
2022/05/26 07:58:11;;;;;;;3.22;0.65;;;19.10;67.90;;;;;;4977888;28;20026;-71
2022/05/26 08:00:37;;;;;;;6.53;1.08;;;19.10;67.90;;;;;;4978682;28;20015;-72
2022/05/26 08:03:03;;;;;;;1.30;0.40;;;19.10;68.00;;;;;;4978490;28;20085;-72
2022/05/26 08:05:28;;;;;;;7.45;0.98;;;19.10;68.00;;;;;;4978711;28;20034;-72
2022/05/26 08:07:54;;;;;;;2.50;0.90;;;19.10;68.00;;;;;;4978511;28;20507;-72
2022/05/26 08:10:20;;;;;;;3.67;0.82;;;19.10;68.00;;;;;;4979841;28;20106;-72
2022/05/26 08:12:46;;;;;;;3.85;1.02;;;19.10;68.00;;;;;;4978417;28;20106;-72
2022/05/26 08:15:11;;;;;;;3.53;1.20;;;19.10;68.00;;;;;;4979667;28;20045;-72
2022/05/26 08:17:37;;;;;;;1.63;0.80;;;19.10;68.00;;;;;;4978532;28;20031;-72
2022/05/26 08:20:04;;;;;;;2.65;0.90;;;19.10;68.00;;;;;;4979707;28;20026;-72
2022/05/26 08:22:29;;;;;;;8.60;1.50;;;19.10;68.00;;;;;;4978451;28;20026;-72
2022/05/26 08:24:56;;;;;;;5.07;0.93;;;19.10;68.00;;;;;;4978254;28;20114;-72
2022/05/26 08:27:22;;;;;;;4.38;0.90;;;19.10;68.00;;;;;;4979967;28;20489;-72
2022/05/26 08:29:48;;;;;;;1.98;0.63;;;19.10;68.10;;;;;;4978322;28;20090;-72
2022/05/26 08:32:17;;;;;;;2.90;0.90;;;19.10;68.20;;;;;;4978621;28;20058;-72
2022/05/26 08:34:42;;;;;;;2.85;0.70;;;19.10;68.10;;;;;;4946601;28;20358;-72
2022/05/26 08:37:19;;;;;;;4.65;1.00;;;19.10;68.10;;;;;;4978289;28;20038;-73
2022/05/26 08:39:45;;;;;;;5.80;1.10;;;19.10;68.10;;;;;;4947079;28;20493;-73
2022/05/26 08:42:19;;;;;;;2.85;1.00;;;19.10;67.50;;;;;;4979352;28;20084;-73
2022/05/26 08:44:45;;;;;;;2.70;0.60;;;19.00;66.80;;;;;;4962277;28;20070;-73
2022/05/26 08:47:13;;;;;;;2.05;0.80;;;19.00;66.50;;;;;;4962281;28;20506;-73
2022/05/26 08:49:43;;;;;;;4.50;0.80;;;18.90;66.30;;;;;;4962358;28;20089;-72
2022/05/26 08:52:12;;;;;;;3.25;0.70;;;18.80;66.00;;;;;;4978324;28;20035;-73
2022/05/26 08:54:43;;;;;;;2.63;0.80;;;18.80;65.30;;;;;;4979430;28;20170;-72
2022/05/26 08:57:12;;;;;;;4.22;0.95;;;18.80;65.50;;;;;;4978105;28;20486;-72
2022/05/26 08:59:40;;;;;;;3.85;1.08;;;18.70;65.30;;;;;;4978415;28;20027;-72
2022/05/26 09:02:15;;;;;;;3.08;0.88;;;18.70;65.40;;;;;;4978095;28;20165;-70
2022/05/26 09:04:41;;;;;;;5.25;0.90;;;18.70;65.40;;;;;;4961377;28;20030;-71
2022/05/26 09:12:59;;;;;;;2.15;0.75;;;18.60;66.00;;;;;;4973070;28;20058;-73
2022/05/26 09:15:28;;;;;;;3.55;0.60;;;18.50;64.90;;;;;;4973509;28;20498;-72
2022/05/26 09:17:54;;;;;;;3.80;0.65;;;18.50;64.80;;;;;;4971441;28;20030;-73
2022/05/26 09:20:39;;;;;;;3.58;0.80;;;18.50;64.80;;;;;;4972573;28;20441;-73
2022/05/26 09:23:24;;;;;;;5.70;1.05;;;18.50;64.90;;;;;;4940572;28;20030;-73
2022/05/26 09:26:07;;;;;;;5.90;1.10;;;18.50;64.70;;;;;;4972473;28;20069;-72
2022/05/26 09:28:45;;;;;;;5.40;0.77;;;18.40;64.80;;;;;;4942456;28;20110;-73
2022/05/26 09:31:44;;;;;;;2.05;0.70;;;18.40;64.90;;;;;;4973451;28;20018;-72
2022/05/26 09:34:20;;;;;;;4.75;1.00;;;18.40;64.90;;;;;;4973016;28;20509;-73
2022/05/26 09:36:50;;;;;;;7.30;1.17;;;18.40;65.00;;;;;;4972539;28;20039;-73
2022/05/26 09:39:34;;;;;;;3.45;0.90;;;18.40;65.00;;;;;;4972709;28;20026;-73
2022/05/26 09:42:00;;;;;;;6.70;1.23;;;18.30;64.80;;;;;;4972475;28;20128;-72
2022/05/26 09:44:44;;;;;;;5.18;0.70;;;18.30;65.00;;;;;;4956243;28;20054;-73
2022/05/26 09:47:24;;;;;;;6.90;1.30;;;18.30;65.00;;;;;;4973403;28;20101;-73
2022/05/26 09:49:52;;;;;;;4.85;0.75;;;18.30;65.00;;;;;;4973644;28;20030;-72
2022/05/26 09:52:19;;;;;;;6.38;1.02;;;18.30;65.00;;;;;;4972335;28;20023;-73
2022/05/26 09:54:46;;;;;;;3.78;0.90;;;18.30;65.10;;;;;;4972469;28;20023;-72
2022/05/26 09:57:19;;;;;;;5.30;1.15;;;18.30;65.10;;;;;;4972143;28;20022;-73
2022/05/26 09:59:45;;;;;;;5.18;1.23;;;18.30;65.10;;;;;;4972230;28;20568;-72
2022/05/26 10:02:18;;;;;;;3.63;0.85;;;18.30;65.10;;;;;;4956003;28;20106;-72
2022/05/26 10:04:54;;;;;;;5.15;1.02;;;18.30;65.20;;;;;;4972393;28;20022;-73
2022/05/26 10:07:34;;;;;;;5.32;1.13;;;18.20;65.20;;;;;;4972017;28;20033;-73
2022/05/26 10:10:18;;;;;;;4.78;1.05;;;18.20;65.20;;;;;;4972892;28;20034;-73
2022/05/26 10:13:07;;;;;;;5.32;1.00;;;18.20;65.10;;;;;;4973306;28;20081;-73
2022/05/26 10:15:45;;;;;;;4.43;0.80;;;18.20;65.10;;;;;;4916422;29;20040;-72
2022/05/26 10:18:36;;;;;;;3.05;0.88;;;18.20;65.30;;;;;;4914831;29;20175;-73
2022/05/26 10:21:04;;;;;;;3.75;1.00;;;18.20;65.30;;;;;;4930457;29;20118;-72
2022/05/26 10:23:39;;;;;;;3.10;0.80;;;18.20;65.30;;;;;;4932290;29;20047;-73
2022/05/26 10:26:12;;;;;;;2.40;0.90;;;18.10;65.20;;;;;;4931816;29;20031;-73
2022/05/26 10:28:56;;;;;;;4.57;1.08;;;18.10;65.00;;;;;;4932250;29;20136;-73
2022/05/26 10:31:34;;;;;;;5.43;1.15;;;18.10;64.90;;;;;;4932774;29;20051;-73
2022/05/26 10:34:35;;;;;;;5.10;1.25;;;18.10;64.80;;;;;;4933503;29;20043;-73
2022/05/26 10:37:13;;;;;;;5.22;0.95;;;18.10;64.70;;;;;;4918272;29;20108;-72
2022/05/26 10:39:47;;;;;;;4.45;1.25;;;18.10;64.70;;;;;;4933570;29;20032;-73
2022/05/26 10:42:23;;;;;;;1.98;0.80;;;18.10;64.80;;;;;;4932205;29;20032;-73
2022/05/26 10:45:22;;;;;;;4.47;0.90;;;18.10;64.80;;;;;;4931719;29;20047;-72
2022/05/26 10:48:24;;;;;;;4.45;0.90;;;18.10;64.70;;;;;;4916619;29;20039;-72
2022/05/26 10:51:23;;;;;;;2.57;0.93;;;18.10;64.50;;;;;;4931596;29;20028;-73
2022/05/26 10:53:54;;;;;;;6.13;1.38;;;18.10;64.50;;;;;;4960076;28;20039;-72
2022/05/26 10:56:47;;;;;;;3.40;1.05;;;18.00;64.50;;;;;;4970921;28;20081;-72
2022/05/26 10:59:17;;;;;;;5.35;1.58;;;18.00;64.60;;;;;;4972401;28;20018;-71
2022/05/26 11:01:53;;;;;;;5.03;1.23;;;18.00;64.50;;;;;;4972385;28;20019;-72
2022/05/26 11:04:35;;;;;;;2.55;0.90;;;18.00;64.60;;;;;;4970977;28;20037;-72
2022/05/26 11:07:05;;;;;;;3.65;0.98;;;18.00;64.50;;;;;;4970739;28;20493;-72
2022/05/26 11:09:47;;;;;;;4.00;1.30;;;18.00;64.50;;;;;;4954769;28;20481;-73
2022/05/26 11:12:20;;;;;;;5.72;1.27;;;18.00;64.40;;;;;;4956159;28;20408;-73
2022/05/26 11:17:49;;;;;;;3.00;0.70;;;18.00;64.40;;;;;;4971015;28;19921;-73
2022/05/26 11:20:20;;;;;;;5.50;1.38;;;18.00;64.50;;;;;;4953524;28;20023;-73
2022/05/26 11:22:46;;;;;;;3.42;0.70;;;18.00;64.50;;;;;;4969214;28;20501;-73
2022/05/26 11:25:27;;;;;;;2.83;0.93;;;18.00;64.40;;;;;;4970828;28;20054;-73
2022/05/26 11:27:59;;;;;;;2.50;0.93;;;18.00;64.30;;;;;;4970251;28;20053;-73
2022/05/26 11:36:09;;;;;;;5.13;2.13;;;18.00;64.30;;;;;;4956115;28;20066;-73
2022/05/26 11:38:46;;;;;;;2.83;1.02;;;18.00;64.40;;;;;;4954303;28;20026;-73
2022/05/26 11:41:34;;;;;;;4.00;1.10;;;18.10;64.50;;;;;;4954224;28;20394;-73
2022/05/26 11:44:08;;;;;;;5.30;1.35;;;18.00;64.50;;;;;;4970383;28;20022;-73
2022/05/26 11:46:43;;;;;;;4.70;1.58;;;18.00;64.60;;;;;;4969359;28;20476;-73
2022/05/26 11:49:44;;;;;;;6.05;1.70;;;18.00;64.80;;;;;;4971474;28;20134;-73
2022/05/26 11:52:24;;;;;;;5.88;2.10;;;18.10;64.90;;;;;;4970861;28;20050;-73
2022/05/26 11:54:53;;;;;;;7.40;2.05;;;18.00;64.80;;;;;;4971311;28;20031;-71
2022/05/26 11:57:38;;;;;;;4.47;1.55;;;18.00;64.70;;;;;;4971176;28;20069;-72
2022/05/26 12:00:28;;;;;;;5.43;2.00;;;18.10;65.00;;;;;;4982292;28;20062;-70
2022/05/26 12:03:22;;;;;;;6.03;1.90;;;18.10;64.90;;;;;;4969855;28;20027;-72
2022/05/26 12:06:06;;;;;;;3.35;1.60;;;18.10;64.70;;;;;;4971414;28;20023;-72
2022/05/26 12:08:39;;;;;;;4.38;1.35;;;18.10;64.70;;;;;;4983075;28;20027;-73
2022/05/26 12:11:07;;;;;;;5.20;1.52;;;18.00;64.60;;;;;;4970075;28;20034;-71
2022/05/26 12:13:34;;;;;;;4.93;1.38;;;18.10;64.80;;;;;;4969981;28;20027;-73
2022/05/26 12:16:14;;;;;;;4.85;1.30;;;18.10;64.80;;;;;;4954380;28;20069;-73
2022/05/26 12:18:46;;;;;;;3.10;1.10;;;18.00;64.60;;;;;;4970083;28;20437;-73
2022/05/26 12:21:13;;;;;;;;;;;18.00;64.60;;;;;;4954593;28;20158;-71
2022/05/26 12:23:39;;;;;;;3.45;1.02;;;18.10;64.70;;;;;;4971294;28;20416;-71
2022/05/26 12:26:25;;;;;;;2.20;1.10;;;18.10;64.70;;;;;;4970585;28;20027;-72
2022/05/26 12:28:51;;;;;;;6.57;1.55;;;18.10;64.70;;;;;;4970405;28;20015;-71
2022/05/26 12:31:16;;;;;;;3.03;1.00;;;18.00;64.70;;;;;;4970223;28;20106;-70
2022/05/26 12:34:00;;;;;;;3.63;1.30;;;18.10;64.70;;;;;;4970199;28;20037;-73
2022/05/26 12:36:39;;;;;;;2.53;0.88;;;18.10;64.60;;;;;;4970026;28;20489;-73
2022/05/26 12:39:43;;;;;;;4.13;0.80;;;18.10;64.70;;;;;;4970171;28;20030;-73
2022/05/26 12:42:17;;;;;;;2.47;1.25;;;18.10;64.50;;;;;;4969420;28;20512;-73
2022/05/26 12:45:02;;;;;;;3.25;0.80;;;18.10;64.50;;;;;;4972785;28;20143;-73
2022/05/26 12:47:35;;;;;;;1.85;0.88;;;18.10;64.50;;;;;;4974884;28;20555;-73
2022/05/26 12:50:02;;;;;;;4.57;0.90;;;18.10;64.10;;;;;;4973134;28;20031;-73
2022/05/26 12:52:37;;;;;;;1.23;0.60;;;18.10;64.10;;;;;;4957554;28;20027;-73
2022/05/26 12:55:23;;;;;;;2.63;1.00;;;18.10;64.00;;;;;;4973309;28;20039;-73
2022/05/26 12:58:06;;;;;;;2.88;1.13;;;18.10;63.80;;;;;;4972096;28;20019;-73
2022/05/26 13:00:35;;;;;;;2.33;1.02;;;18.10;64.00;;;;;;4973961;28;20381;-73
2022/05/26 13:03:04;;;;;;;1.25;0.55;;;18.10;63.80;;;;;;4973007;28;20022;-72
2022/05/26 13:05:33;;;;;;;2.88;0.90;;;18.00;63.80;;;;;;4973134;28;20026;-73
2022/05/26 13:07:58;;;;;;;4.45;1.00;;;18.10;63.80;;;;;;4973549;28;20048;-72
2022/05/26 13:10:35;;;;;;;2.58;1.00;;;18.10;63.80;;;;;;4973842;28;20035;-72
2022/05/26 13:13:06;;;;;;;3.20;0.90;;;18.00;63.70;;;;;;4973641;28;20018;-73
2022/05/26 13:15:33;;;;;;;2.58;0.90;;;18.10;63.70;;;;;;4973962;28;20061;-72
2022/05/26 13:17:59;;;;;;;2.75;0.88;;;18.10;63.70;;;;;;4974624;28;20398;-73
2022/05/26 13:20:31;;;;;;;2.83;0.80;;;18.00;63.60;;;;;;4956593;28;20026;-73
2022/05/26 13:22:57;;;;;;;1.88;1.13;;;18.10;63.70;;;;;;4973029;28;20030;-73
2022/05/26 13:25:33;;;;;;;3.83;0.98;;;18.10;63.80;;;;;;4973049;28;20050;-73
2022/05/26 13:28:05;;;;;;;2.53;0.88;;;18.10;64.00;;;;;;4972755;28;20023;-73
2022/05/26 13:33:27;;;;;;;8.02;1.02;;;18.10;64.10;;;;;;4973084;28;20539;-70
2022/05/26 13:35:57;;;;;;;4.40;1.17;;;18.10;64.10;;;;;;4973009;28;20027;-71
2022/05/26 13:38:32;;;;;;;3.22;0.80;;;18.10;64.10;;;;;;4973829;28;20511;-71
2022/05/26 13:40:58;;;;;;;6.18;0.90;;;18.10;64.10;;;;;;4974648;28;20033;-71
2022/05/26 13:43:24;;;;;;;5.13;0.93;;;18.10;64.20;;;;;;4972492;28;20397;-71
2022/05/26 13:45:50;;;;;;;5.05;0.98;;;18.20;64.30;;;;;;4972467;28;20047;-71
2022/05/26 13:48:34;;;;;;;6.43;0.90;;;18.20;64.30;;;;;;4972255;28;20083;-71
2022/05/26 13:51:22;;;;;;;3.58;1.00;;;18.20;64.50;;;;;;4971570;28;20114;-72
2022/05/26 13:54:11;;;;;;;6.03;1.02;;;18.20;64.20;;;;;;4972561;28;20189;-72